Česky Dansk Deutsch English Español Suomi Français Magyar Italiano Nederlands norsk Polski Português svenska Türkçe

 

Het Weer

Utti (Finland)

14:20, 19 augustus 2016 (GMT)

NWNNE
WE
SWSSE
Home            
Utti Lappeenranta Mikkeli Helsinki-Vantaa Helsinki-Malmi Varkaus Halli Savonlinna Jyvaskyla Tampere / Pirkkala Tallinn St. Peterburg Ahtari Kuopio Joensuu Viitasaari Turku Pori Tartu/Ulenurme Seinajoki-Ilmajok Ilmajoki Parnu Kardla

Om een weerknop op uw website of weblog te plaatsen, copieer onderstaande code en plak die in uw pagina. In het eerste vakje staat HTML-code, in het tweede vakje UBB-code.


Add to Google

Details

Wind speed:3 bf, 10 kn, 5.1 m/s, 11.5 miles/h, 18.5 km/h
Wind direction:ESE, 120°
Visibility:Greater than 10000 m, 10 km, 32800 ft, 6.2 miles
Clouds:CAVOC
Temperature:21°C, 70°F
Dew-point:9°C, 48°F
Atmospheric pressure:1018 hPa, 763.6 mmHg, 30.06 inHg, 1.005 atm
Relative humidity:46.2 %
METAR:EFUT 191420Z AUTO 12010KT CAVOK 21/09 Q1018

Snelkoppelingen

Actuele weersinformatie van de hele wereld. Voeg locaties toe met het plus (+) symbool. Deze snelkoppelingen kunnen worden toegevoegd aan Google.

Lid van de Technetium groep

website free tracking
StatCounter NetStat W3C Validator

27-10-2020 01:34:48
astro.technetium.be money.technetium.be phote.technetium.be tafeltennistafel.technetium.be www.ligfiets.net